Time;durP1;ratioP1;P1;durP2;ratioP2;P2;SDS_P1;SDS_P2;PMS_P1;PMS_P2;Temp;Humidity;BMP_temperature;BMP_pressure;BME280_temperature;BME280_humidity;BME280_pressure;Samples;Min_cycle;Max_cycle;Signal;HPM_P1;HPM_P2
2020/12/19 00:01:44;;;;;;;10.93;7.97;;;4.30;99.90;;;;;;5035011;28;20260;-85
2020/12/19 00:04:09;;;;;;;10.90;7.93;;;4.20;99.90;;;;;;5054266;28;20195;-83
2020/12/19 00:06:35;;;;;;;15.43;8.30;;;4.20;99.90;;;;;;5054760;28;20177;-86
2020/12/19 00:09:00;;;;;;;10.60;6.60;;;4.20;99.90;;;;;;5036690;28;20647;-83
2020/12/19 00:11:26;;;;;;;14.80;8.10;;;4.20;99.90;;;;;;5053121;28;20294;-86
2020/12/19 00:13:51;;;;;;;10.50;6.70;;;4.20;99.90;;;;;;5053446;28;20180;-82
2020/12/19 00:16:18;;;;;;;12.43;8.70;;;4.20;99.90;;;;;;5043913;28;20269;-84
2020/12/19 00:18:45;;;;;;;12.00;7.90;;;4.20;99.90;;;;;;5034611;28;20547;-85
2020/12/19 00:21:11;;;;;;;14.47;8.63;;;4.20;99.90;;;;;;5034429;28;20491;-81
2020/12/19 00:23:38;;;;;;;12.10;7.67;;;4.10;99.90;;;;;;5034139;28;20431;-83
2020/12/19 00:26:04;;;;;;;11.37;8.00;;;4.10;99.90;;;;;;5034374;28;20759;-85
2020/12/19 00:28:30;;;;;;;11.43;6.67;;;4.20;99.90;;;;;;5016817;28;20430;-87
2020/12/19 00:30:56;;;;;;;15.50;8.33;;;4.10;99.90;;;;;;5040970;28;20484;-87
2020/12/19 00:33:22;;;;;;;11.27;6.67;;;4.10;99.90;;;;;;5034641;28;20228;-85
2020/12/19 00:35:49;;;;;;;11.87;8.47;;;4.10;99.90;;;;;;5047966;28;20424;-87
2020/12/19 00:38:14;;;;;;;13.17;7.70;;;4.10;99.90;;;;;;5054184;28;20442;-86
2020/12/19 00:40:40;;;;;;;15.03;8.70;;;4.10;99.90;;;;;;5054162;28;20520;-85
2020/12/19 00:43:06;;;;;;;11.70;8.20;;;4.00;99.90;;;;;;5054310;28;20180;-85
2020/12/19 00:45:32;;;;;;;17.87;8.77;;;4.10;99.90;;;;;;5043203;28;20982;-81
2020/12/19 00:47:57;;;;;;;12.80;7.87;;;4.00;99.90;;;;;;5034109;28;20169;-81
2020/12/19 00:50:23;;;;;;;14.10;8.60;;;4.00;99.90;;;;;;5034017;28;20343;-81
2020/12/19 00:52:48;;;;;;;12.77;8.13;;;4.00;99.90;;;;;;5034066;28;20263;-82
2020/12/19 00:55:14;;;;;;;12.47;8.00;;;4.00;99.90;;;;;;5033680;28;20184;-80
2020/12/19 00:57:40;;;;;;;12.20;7.57;;;4.00;99.90;;;;;;5033906;28;20180;-80
2020/12/19 01:00:10;;;;;;;12.33;9.00;;;3.90;99.90;;;;;;5041841;28;20199;-82
2020/12/19 01:02:37;;;;;;;16.10;8.30;;;3.90;99.90;;;;;;5043511;28;20246;-81
2020/12/19 01:05:05;;;;;;;13.27;8.97;;;3.90;99.90;;;;;;5041792;28;20417;-80
2020/12/19 01:07:31;;;;;;;12.50;8.10;;;3.90;99.90;;;;;;5041781;28;20742;-81
2020/12/19 01:09:57;;;;;;;14.20;7.97;;;3.90;99.90;;;;;;5043204;28;20470;-81
2020/12/19 01:12:24;;;;;;;12.23;7.50;;;3.90;99.90;;;;;;5041740;28;20173;-81
2020/12/19 01:14:49;;;;;;;12.97;9.17;;;3.90;99.90;;;;;;5041542;28;20467;-80
2020/12/19 01:17:15;;;;;;;16.43;10.20;;;3.80;99.90;;;;;;5049388;28;20435;-82
2020/12/19 01:19:40;;;;;;;11.17;7.50;;;3.80;99.90;;;;;;5053409;28;20170;-81
2020/12/19 01:22:06;;;;;;;10.80;8.13;;;3.80;99.90;;;;;;5053608;28;20188;-81
2020/12/19 01:24:32;;;;;;;11.90;7.67;;;3.80;99.90;;;;;;5053603;28;20573;-81
2020/12/19 01:26:58;;;;;;;12.80;9.60;;;3.80;99.90;;;;;;5053475;28;20494;-81
2020/12/19 01:29:24;;;;;;;15.10;9.27;;;3.80;99.90;;;;;;5053284;28;20503;-82
2020/12/19 01:31:49;;;;;;;12.57;8.57;;;3.80;99.90;;;;;;5053312;28;20186;-85
2020/12/19 01:34:15;;;;;;;13.80;8.90;;;3.80;99.90;;;;;;5053322;28;20256;-82
2020/12/19 01:36:41;;;;;;;14.50;7.60;;;3.80;99.90;;;;;;5053099;28;20176;-84
2020/12/19 01:39:07;;;;;;;15.50;8.37;;;3.80;99.90;;;;;;5053166;28;20680;-82
2020/12/19 01:41:33;;;;;;;14.63;8.30;;;3.80;99.90;;;;;;5053266;28;20475;-82
2020/12/19 01:43:59;;;;;;;15.30;8.90;;;3.80;99.90;;;;;;5052781;28;20175;-82
2020/12/19 01:46:52;;;;;;;14.37;10.50;;;3.80;99.90;;;;;;5053166;28;20169;-84
2020/12/19 01:49:18;;;;;;;13.63;10.17;;;3.80;99.90;;;;;;5052905;28;20419;-82
2020/12/19 01:51:47;;;;;;;17.97;11.70;;;3.80;99.90;;;;;;5050488;28;20926;-83
2020/12/19 01:54:12;;;;;;;15.90;10.13;;;3.80;99.90;;;;;;5032973;28;20499;-83
2020/12/19 01:56:43;;;;;;;14.67;9.87;;;3.80;99.90;;;;;;5032865;28;20520;-83
2020/12/19 01:59:10;;;;;;;13.73;10.60;;;3.80;99.90;;;;;;5032822;28;20227;-85
2020/12/19 02:01:43;;;;;;;14.10;9.23;;;3.80;99.90;;;;;;5033029;28;20415;-86
2020/12/19 02:04:09;;;;;;;16.83;10.00;;;3.80;99.90;;;;;;5033132;28;20767;-85
2020/12/19 02:06:34;;;;;;;14.93;10.03;;;3.80;99.90;;;;;;5018400;28;20413;-86
2020/12/19 02:09:00;;;;;;;12.30;8.67;;;3.80;99.90;;;;;;5021944;28;20428;-87
2020/12/19 02:11:27;;;;;;;16.17;11.77;;;3.80;99.90;;;;;;5021818;28;20217;-86
2020/12/19 02:13:52;;;;;;;15.50;10.17;;;3.80;99.90;;;;;;5039323;28;20905;-85
2020/12/19 02:16:20;;;;;;;16.70;10.90;;;3.80;99.90;;;;;;5039005;28;20511;-87
2020/12/19 02:18:46;;;;;;;14.20;10.63;;;3.80;99.90;;;;;;5021763;28;20166;-85
2020/12/19 02:21:12;;;;;;;17.20;10.90;;;3.80;99.90;;;;;;5039625;28;20440;-86
2020/12/19 02:23:37;;;;;;;21.10;11.40;;;3.80;99.90;;;;;;5039560;28;20412;-86
2020/12/19 02:26:03;;;;;;;14.97;10.60;;;3.80;99.90;;;;;;5039487;28;20405;-86
2020/12/19 02:28:29;;;;;;;15.27;9.57;;;3.80;99.90;;;;;;5026007;28;20244;-85
2020/12/19 02:30:55;;;;;;;17.70;12.00;;;3.80;99.90;;;;;;5049861;28;20468;-86
2020/12/19 02:33:21;;;;;;;15.80;9.63;;;3.80;99.90;;;;;;5049904;28;20170;-87
2020/12/19 02:35:46;;;;;;;15.73;11.17;;;3.80;99.90;;;;;;5047141;28;20224;-86
2020/12/19 02:38:12;;;;;;;15.47;11.20;;;3.70;99.90;;;;;;5044557;28;20206;-85
2020/12/19 02:40:37;;;;;;;21.53;11.77;;;3.80;99.90;;;;;;5048325;28;20189;-87
2020/12/19 02:43:03;;;;;;;16.57;11.80;;;3.70;99.90;;;;;;5040231;28;20634;-86
2020/12/19 02:45:29;;;;;;;17.20;12.30;;;3.70;99.90;;;;;;5048337;28;20692;-87
2020/12/19 02:47:54;;;;;;;19.60;11.73;;;3.70;99.90;;;;;;5047529;28;20543;-83
2020/12/19 02:50:20;;;;;;;17.07;13.17;;;3.70;99.90;;;;;;5047613;28;20693;-84
2020/12/19 02:52:46;;;;;;;19.03;11.80;;;3.70;99.90;;;;;;5047086;28;20248;-82
2020/12/19 02:55:11;;;;;;;18.87;12.20;;;3.70;99.90;;;;;;5047564;28;20203;-83
2020/12/19 02:57:37;;;;;;;16.60;11.83;;;3.70;99.90;;;;;;5048303;28;20548;-83
2020/12/19 03:00:05;;;;;;;21.50;11.83;;;3.60;99.90;;;;;;5045967;28;20175;-83
2020/12/19 03:02:30;;;;;;;18.80;11.37;;;3.60;99.90;;;;;;5048537;28;20419;-83
2020/12/19 03:04:56;;;;;;;17.17;11.10;;;3.60;99.90;;;;;;5047024;28;20424;-83
2020/12/19 03:07:21;;;;;;;19.73;12.57;;;3.70;99.90;;;;;;5047476;28;20176;-83
2020/12/19 03:09:47;;;;;;;16.47;11.60;;;3.60;99.90;;;;;;5047143;28;20225;-82
2020/12/19 03:12:12;;;;;;;22.07;13.80;;;3.70;99.90;;;;;;5046459;28;20193;-83
2020/12/19 03:14:38;;;;;;;22.13;13.27;;;3.70;99.90;;;;;;5047603;28;20169;-84
2020/12/19 03:17:04;;;;;;;18.17;12.10;;;3.60;99.90;;;;;;5047812;28;20223;-83
2020/12/19 03:19:29;;;;;;;22.33;13.50;;;3.60;99.90;;;;;;5043204;28;20715;-84
2020/12/19 03:21:55;;;;;;;20.07;13.50;;;3.60;99.90;;;;;;5037961;28;20188;-83
2020/12/19 03:24:20;;;;;;;21.70;12.57;;;3.60;99.90;;;;;;5045471;28;20177;-84
2020/12/19 03:26:46;;;;;;;27.07;15.97;;;3.60;99.90;;;;;;5055579;28;20702;-84
2020/12/19 03:29:12;;;;;;;20.27;13.17;;;3.60;99.90;;;;;;5055248;28;20705;-84
2020/12/19 03:31:38;;;;;;;19.40;12.53;;;3.60;99.90;;;;;;5055425;28;20676;-84
2020/12/19 03:34:04;;;;;;;22.07;14.23;;;3.60;99.90;;;;;;5055378;28;20257;-83
2020/12/19 03:36:29;;;;;;;20.03;13.67;;;3.60;99.90;;;;;;5055415;28;20428;-84
2020/12/19 03:38:55;;;;;;;19.60;13.80;;;3.60;99.90;;;;;;5055199;28;20455;-83
2020/12/19 03:41:21;;;;;;;23.47;14.30;;;3.60;99.90;;;;;;5055364;28;20168;-84
2020/12/19 03:43:46;;;;;;;21.67;13.27;;;3.60;99.90;;;;;;5054899;28;20180;-83
2020/12/19 03:46:12;;;;;;;19.90;13.90;;;3.60;99.90;;;;;;5055270;28;20172;-84
2020/12/19 03:48:38;;;;;;;24.20;14.80;;;3.60;99.90;;;;;;5055136;28;20568;-84
2020/12/19 03:51:04;;;;;;;22.40;14.47;;;3.70;99.90;;;;;;5055019;28;20205;-84
2020/12/19 03:53:29;;;;;;;20.80;13.73;;;3.70;99.90;;;;;;5037268;28;20418;-85
2020/12/19 03:55:55;;;;;;;24.57;14.20;;;3.60;99.90;;;;;;5055063;28;20168;-83
2020/12/19 03:58:21;;;;;;;24.30;13.83;;;3.70;99.90;;;;;;5054671;28;20169;-82
2020/12/19 04:00:46;;;;;;;25.87;14.57;;;3.70;99.90;;;;;;5055054;28;20641;-82
2020/12/19 04:03:12;;;;;;;20.20;12.70;;;3.60;99.90;;;;;;5055009;28;20178;-82
2020/12/19 04:05:37;;;;;;;21.40;13.10;;;3.70;99.90;;;;;;5037082;28;20180;-82
2020/12/19 04:08:03;;;;;;;24.03;14.80;;;3.70;99.90;;;;;;5037038;28;20209;-82
2020/12/19 04:10:28;;;;;;;24.00;15.27;;;3.60;99.90;;;;;;5054808;28;20661;-82
2020/12/19 04:12:54;;;;;;;23.13;13.93;;;3.60;99.90;;;;;;5054873;28;20639;-82
2020/12/19 04:15:23;;;;;;;27.00;14.80;;;3.60;99.90;;;;;;5036504;28;20203;-82
2020/12/19 04:17:52;;;;;;;29.23;16.50;;;3.60;99.90;;;;;;5054734;28;20169;-82
2020/12/19 04:20:18;;;;;;;25.07;15.73;;;3.60;99.90;;;;;;5036800;28;20412;-82
2020/12/19 04:22:43;;;;;;;20.13;14.37;;;3.60;99.90;;;;;;5054468;28;20418;-83
2020/12/19 04:25:09;;;;;;;25.93;14.43;;;3.60;99.90;;;;;;5031917;28;20420;-82
2020/12/19 04:27:36;;;;;;;24.30;15.53;;;3.60;99.90;;;;;;5038201;28;20180;-83
2020/12/19 04:30:06;;;;;;;20.73;13.80;;;3.60;99.90;;;;;;5033624;28;20523;-83
2020/12/19 04:32:33;;;;;;;23.13;15.50;;;3.60;99.90;;;;;;5038551;28;20426;-82
2020/12/19 04:34:58;;;;;;;25.03;15.50;;;3.60;99.90;;;;;;5054318;28;20419;-83
2020/12/19 04:37:24;;;;;;;24.53;13.77;;;3.60;99.90;;;;;;5054284;28;20414;-82
2020/12/19 04:39:51;;;;;;;26.87;17.60;;;3.70;99.90;;;;;;5053998;28;20575;-82
2020/12/19 04:42:16;;;;;;;27.57;16.37;;;3.60;99.90;;;;;;5054195;28;20428;-82
2020/12/19 04:44:42;;;;;;;23.23;15.10;;;3.60;99.90;;;;;;5053812;28;20779;-82
2020/12/19 04:47:08;;;;;;;33.10;16.40;;;3.70;99.90;;;;;;5054015;28;20229;-82
2020/12/19 04:49:36;;;;;;;21.43;13.97;;;3.70;99.90;;;;;;5053985;28;20166;-82
2020/12/19 04:52:02;;;;;;;22.97;14.10;;;3.70;99.90;;;;;;5054000;28;20174;-82
2020/12/19 04:54:28;;;;;;;27.50;16.93;;;3.60;99.90;;;;;;5053908;28;20447;-82
2020/12/19 04:56:55;;;;;;;25.03;16.07;;;3.60;99.90;;;;;;5053805;28;20427;-82
2020/12/19 04:59:21;;;;;;;26.67;15.93;;;3.60;99.90;;;;;;5053001;28;20448;-82
2020/12/19 05:01:47;;;;;;;24.03;16.10;;;3.60;99.90;;;;;;5033838;28;20429;-82
2020/12/19 05:04:13;;;;;;;28.80;16.90;;;3.60;99.90;;;;;;5033889;28;20855;-82
2020/12/19 05:06:39;;;;;;;22.00;16.50;;;3.60;99.90;;;;;;5033832;28;20331;-82
2020/12/19 05:09:05;;;;;;;26.07;16.10;;;3.60;99.90;;;;;;5033788;28;20414;-82
2020/12/19 05:11:31;;;;;;;23.10;14.67;;;3.60;99.90;;;;;;5033617;28;20214;-82
2020/12/19 05:13:56;;;;;;;22.87;15.10;;;3.60;99.90;;;;;;5015549;28;20791;-81
2020/12/19 05:16:22;;;;;;;19.80;12.10;;;3.60;99.90;;;;;;5033634;28;20184;-82
2020/12/19 05:18:48;;;;;;;27.20;16.20;;;3.50;99.90;;;;;;5033553;28;20664;-82
2020/12/19 05:21:14;;;;;;;26.97;15.37;;;3.50;99.90;;;;;;5033618;28;20181;-82
2020/12/19 05:23:43;;;;;;;29.10;16.93;;;3.60;99.90;;;;;;5033344;28;20210;-81
2020/12/19 05:26:12;;;;;;;21.90;13.73;;;3.60;99.90;;;;;;5033427;28;20417;-81
2020/12/19 05:28:43;;;;;;;23.00;17.30;;;3.50;99.90;;;;;;5033023;28;20416;-82
2020/12/19 05:31:10;;;;;;;27.00;17.53;;;3.50;99.90;;;;;;5033306;28;20972;-82
2020/12/19 05:33:41;;;;;;;27.27;17.43;;;3.60;99.90;;;;;;5033316;28;20473;-82
2020/12/19 05:36:20;;;;;;;29.00;17.30;;;3.60;99.90;;;;;;5033275;28;20419;-82
2020/12/19 05:38:47;;;;;;;26.00;17.80;;;3.60;99.90;;;;;;5033067;28;20458;-82
2020/12/19 05:41:12;;;;;;;28.23;15.47;;;3.60;99.90;;;;;;5032415;28;20416;-82
2020/12/19 05:43:51;;;;;;;25.37;16.10;;;3.50;99.90;;;;;;5015145;28;20787;-82
2020/12/19 05:46:30;;;;;;;29.67;18.27;;;3.60;99.90;;;;;;5042311;28;20591;-82
2020/12/19 05:48:56;;;;;;;25.93;14.77;;;3.60;99.90;;;;;;5053059;28;20737;-82
2020/12/19 05:51:24;;;;;;;24.73;15.50;;;3.60;99.90;;;;;;5052963;28;20474;-82
2020/12/19 05:53:52;;;;;;;25.27;14.53;;;3.60;99.90;;;;;;5052960;28;20446;-82
2020/12/19 05:56:22;;;;;;;34.10;17.70;;;3.60;99.90;;;;;;5052911;28;20416;-82
2020/12/19 05:58:50;;;;;;;26.80;15.67;;;3.60;99.90;;;;;;5052594;28;20491;-82
2020/12/19 06:01:16;;;;;;;30.87;17.73;;;3.60;99.90;;;;;;5052870;28;20424;-82
2020/12/19 06:03:45;;;;;;;21.57;12.90;;;3.60;99.90;;;;;;5052862;28;20422;-83
2020/12/19 06:06:13;;;;;;;23.40;15.20;;;3.60;99.90;;;;;;5052868;28;20175;-83
2020/12/19 06:08:39;;;;;;;23.10;13.73;;;3.60;99.90;;;;;;5052924;28;20451;-82
2020/12/19 06:11:09;;;;;;;24.57;15.00;;;3.60;99.90;;;;;;5052761;28;20468;-82
2020/12/19 06:13:38;;;;;;;26.50;15.70;;;3.60;99.90;;;;;;5034462;28;20430;-83
2020/12/19 06:16:11;;;;;;;21.60;13.53;;;3.60;99.90;;;;;;5052790;28;20420;-83
2020/12/19 06:18:51;;;;;;;21.53;14.20;;;3.60;99.90;;;;;;5052797;28;20498;-82
2020/12/19 06:21:19;;;;;;;23.30;12.00;;;3.60;99.90;;;;;;5052792;28;20551;-82
2020/12/19 06:23:45;;;;;;;22.87;14.67;;;3.60;99.90;;;;;;5033451;28;20431;-83
2020/12/19 06:26:12;;;;;;;21.67;12.77;;;3.60;99.90;;;;;;5015093;28;20840;-83
2020/12/19 06:28:40;;;;;;;18.10;11.40;;;3.60;99.90;;;;;;4998354;28;20546;-82
2020/12/19 06:31:10;;;;;;;26.30;15.30;;;3.60;99.90;;;;;;5032610;28;20558;-82
2020/12/19 06:33:38;;;;;;;28.17;14.43;;;3.60;99.90;;;;;;5032737;28;20413;-82
2020/12/19 06:36:16;;;;;;;25.30;15.23;;;3.50;99.90;;;;;;5032638;28;20479;-80
2020/12/19 06:38:44;;;;;;;28.17;17.70;;;3.50;99.90;;;;;;5032481;28;20510;-79
2020/12/19 06:41:30;;;;;;;20.60;14.40;;;3.50;99.90;;;;;;5032578;28;20775;-80
2020/12/19 06:44:07;;;;;;;22.83;13.50;;;3.50;99.90;;;;;;5031682;28;20450;-82
2020/12/19 06:46:33;;;;;;;21.40;14.37;;;3.50;99.90;;;;;;5043652;28;20984;-80
2020/12/19 06:48:58;;;;;;;27.50;13.70;;;3.50;99.90;;;;;;5052450;28;20416;-80
2020/12/19 06:51:24;;;;;;;23.17;15.10;;;3.50;99.90;;;;;;5052404;28;20209;-80
2020/12/19 06:53:56;;;;;;;23.00;14.10;;;3.50;99.90;;;;;;5055480;28;20256;-81
2020/12/19 06:56:31;;;;;;;22.13;13.80;;;3.50;99.90;;;;;;5056095;28;20185;-81
2020/12/19 06:59:00;;;;;;;19.07;13.37;;;3.50;99.90;;;;;;5037624;28;20420;-81
2020/12/19 07:01:28;;;;;;;25.97;14.67;;;3.50;99.90;;;;;;5036076;28;20503;-81
2020/12/19 07:03:54;;;;;;;24.10;13.70;;;3.50;99.90;;;;;;5036114;28;20471;-81
2020/12/19 07:06:20;;;;;;;21.73;13.87;;;3.50;99.90;;;;;;5036284;28;20420;-81
2020/12/19 07:08:46;;;;;;;25.67;14.17;;;3.50;99.90;;;;;;5036279;28;20420;-81
2020/12/19 07:11:41;;;;;;;26.37;15.30;;;3.50;99.90;;;;;;5018557;28;20221;-81
2020/12/19 07:14:14;;;;;;;24.53;14.83;;;3.50;99.90;;;;;;5035718;28;20167;-81
2020/12/19 07:16:45;;;;;;;23.37;15.23;;;3.50;99.90;;;;;;5035827;28;20408;-82
2020/12/19 07:19:19;;;;;;;25.00;13.40;;;3.50;99.90;;;;;;5035819;28;20408;-82
2020/12/19 07:21:45;;;;;;;20.97;14.83;;;3.50;99.90;;;;;;5035726;28;20420;-82
2020/12/19 07:24:11;;;;;;;24.37;14.17;;;3.50;99.90;;;;;;5035749;28;20913;-83
2020/12/19 07:26:38;;;;;;;21.97;14.63;;;3.50;99.90;;;;;;5035630;28;20427;-82
2020/12/19 07:29:21;;;;;;;20.77;12.90;;;3.50;99.90;;;;;;5035290;28;20424;-82
2020/12/19 07:31:49;;;;;;;24.17;14.07;;;3.50;99.90;;;;;;5035672;28;20554;-83
2020/12/19 07:34:16;;;;;;;21.30;13.53;;;3.50;99.90;;;;;;5035558;28;20405;-81
2020/12/19 07:36:44;;;;;;;23.57;13.47;;;3.40;99.90;;;;;;5035504;28;20412;-82
2020/12/19 07:39:10;;;;;;;19.50;11.37;;;3.40;99.90;;;;;;5036921;28;20515;-84
2020/12/19 07:41:36;;;;;;;19.63;12.93;;;3.50;99.90;;;;;;5024464;28;20997;-84
2020/12/19 07:44:09;;;;;;;21.10;12.83;;;3.40;99.90;;;;;;5017365;28;20415;-83
2020/12/19 07:46:34;;;;;;;21.37;13.33;;;3.40;99.90;;;;;;5035307;28;20416;-83
2020/12/19 07:49:00;;;;;;;22.53;13.30;;;3.40;99.90;;;;;;5035183;28;20777;-82
2020/12/19 07:51:25;;;;;;;21.33;14.83;;;3.40;99.90;;;;;;5017548;28;20206;-84
2020/12/19 07:53:51;;;;;;;21.23;14.63;;;3.40;99.90;;;;;;5037775;28;20177;-83
2020/12/19 07:56:17;;;;;;;21.20;13.27;;;3.40;99.90;;;;;;5055061;28;20177;-83
2020/12/19 07:58:46;;;;;;;21.33;12.20;;;3.40;99.90;;;;;;5041624;28;20174;-83
2020/12/19 08:01:11;;;;;;;25.37;14.97;;;3.40;99.90;;;;;;5034821;28;20990;-83
2020/12/19 08:03:37;;;;;;;21.40;13.37;;;3.40;99.90;;;;;;5034340;28;20419;-82
2020/12/19 08:06:02;;;;;;;21.50;13.20;;;3.40;99.90;;;;;;5034738;28;20171;-83
2020/12/19 08:08:28;;;;;;;22.00;13.00;;;3.40;99.90;;;;;;5034548;28;20162;-82
2020/12/19 08:11:02;;;;;;;24.57;14.57;;;3.40;99.90;;;;;;5034780;28;20201;-82
2020/12/19 08:13:28;;;;;;;21.23;13.03;;;3.40;99.90;;;;;;5034450;28;20169;-83
2020/12/19 08:15:55;;;;;;;22.10;12.43;;;3.40;99.90;;;;;;5034705;28;20478;-83
2020/12/19 08:18:21;;;;;;;24.00;13.73;;;3.40;99.90;;;;;;5034699;28;20420;-83
2020/12/19 08:20:48;;;;;;;24.43;14.10;;;3.40;99.90;;;;;;5034660;28;20423;-83
2020/12/19 08:23:13;;;;;;;19.30;13.00;;;3.50;99.90;;;;;;5034577;28;20490;-81
2020/12/19 08:25:39;;;;;;;21.47;13.20;;;3.50;99.90;;;;;;5034495;28;20848;-82
2020/12/19 08:28:05;;;;;;;21.67;13.57;;;3.50;99.90;;;;;;5034270;28;20177;-81
2020/12/19 08:30:32;;;;;;;23.97;13.93;;;3.50;99.90;;;;;;5034384;28;20267;-83
2020/12/19 08:33:01;;;;;;;21.30;15.03;;;3.60;99.90;;;;;;5034520;28;20418;-82
2020/12/19 08:35:41;;;;;;;20.90;13.10;;;3.60;99.90;;;;;;5034371;28;20417;-82
2020/12/19 08:38:26;;;;;;;27.20;16.93;;;3.60;99.90;;;;;;5027763;28;20494;-83
2020/12/19 08:40:56;;;;;;;25.43;16.43;;;3.60;99.90;;;;;;5054095;28;20437;-83
2020/12/19 08:43:31;;;;;;;26.20;14.13;;;3.60;99.90;;;;;;5053920;28;20464;-83
2020/12/19 08:46:10;;;;;;;20.77;14.47;;;3.70;99.90;;;;;;5053960;28;20413;-82
2020/12/19 08:48:37;;;;;;;28.80;16.00;;;3.70;99.90;;;;;;5054133;28;20561;-81
2020/12/19 08:51:09;;;;;;;25.17;15.50;;;3.80;99.90;;;;;;5053744;28;20518;-82
2020/12/19 08:53:35;;;;;;;29.13;16.10;;;3.90;99.90;;;;;;5053985;28;20504;-82
2020/12/19 08:56:15;;;;;;;25.27;15.50;;;3.90;99.90;;;;;;5053907;28;20435;-82
2020/12/19 08:58:41;;;;;;;23.00;14.37;;;4.00;99.90;;;;;;5053576;28;20767;-82
2020/12/19 09:01:17;;;;;;;18.67;12.27;;;4.00;99.90;;;;;;5053851;28;20416;-82
2020/12/19 09:03:44;;;;;;;21.03;15.27;;;4.00;99.90;;;;;;5053732;28;20173;-82
2020/12/19 09:06:12;;;;;;;23.93;14.40;;;4.10;99.90;;;;;;5053759;28;20419;-82
2020/12/19 09:08:38;;;;;;;22.70;12.50;;;4.10;99.90;;;;;;5035919;28;20411;-84
2020/12/19 09:11:06;;;;;;;22.80;16.03;;;4.20;99.90;;;;;;5053521;28;20471;-84
2020/12/19 09:13:33;;;;;;;21.50;15.97;;;4.20;99.90;;;;;;5053200;28;20461;-83
2020/12/19 09:16:09;;;;;;;24.97;13.70;;;4.30;99.90;;;;;;5053366;28;20414;-83
2020/12/19 09:18:37;;;;;;;20.00;14.90;;;4.30;99.90;;;;;;5021139;28;20519;-83
2020/12/19 09:21:04;;;;;;;22.87;13.80;;;4.40;99.90;;;;;;5034006;28;20791;-83
2020/12/19 09:23:30;;;;;;;22.57;13.70;;;4.50;99.90;;;;;;5053477;28;20468;-83
2020/12/19 09:25:59;;;;;;;23.83;15.77;;;4.60;99.90;;;;;;5052230;28;20810;-83
2020/12/19 09:28:25;;;;;;;23.00;16.93;;;4.70;99.90;;;;;;5033476;28;20898;-82
2020/12/19 09:30:52;;;;;;;17.87;13.67;;;4.80;99.90;;;;;;5036447;28;20528;-83
2020/12/19 09:33:18;;;;;;;17.97;12.70;;;4.90;99.90;;;;;;5033315;28;20420;-84
2020/12/19 09:35:44;;;;;;;17.57;12.90;;;4.90;99.90;;;;;;5015563;28;20818;-83
2020/12/19 09:38:10;;;;;;;19.60;13.47;;;5.00;99.90;;;;;;5015566;28;20449;-83
2020/12/19 09:40:36;;;;;;;17.43;12.37;;;5.10;99.90;;;;;;5033453;28;20186;-84
2020/12/19 09:43:02;;;;;;;17.30;10.73;;;5.20;99.90;;;;;;5041588;28;20507;-84
2020/12/19 09:45:28;;;;;;;17.97;11.57;;;5.20;99.90;;;;;;5053245;28;20507;-84
2020/12/19 09:47:56;;;;;;;20.90;13.77;;;5.30;99.90;;;;;;5053076;28;20173;-82
2020/12/19 09:50:22;;;;;;;17.77;10.83;;;5.40;99.90;;;;;;5052806;28;20468;-82
2020/12/19 09:52:48;;;;;;;17.10;12.00;;;5.40;99.90;;;;;;5052541;28;20408;-82
2020/12/19 09:55:14;;;;;;;17.20;12.00;;;5.40;99.90;;;;;;5052622;28;20979;-83
2020/12/19 09:57:40;;;;;;;17.13;11.70;;;5.50;99.90;;;;;;5052574;28;20521;-82
2020/12/19 10:00:07;;;;;;;18.23;11.97;;;5.50;99.90;;;;;;5052775;28;20462;-82
2020/12/19 10:02:32;;;;;;;13.93;10.30;;;5.60;99.90;;;;;;5052854;28;20174;-81
2020/12/19 10:04:58;;;;;;;14.00;9.87;;;5.70;99.90;;;;;;5052906;28;20423;-82
2020/12/19 10:07:24;;;;;;;18.90;11.70;;;5.70;99.90;;;;;;5035043;28;20169;-82
2020/12/19 10:09:49;;;;;;;15.37;11.20;;;5.80;99.90;;;;;;5052735;28;20250;-82
2020/12/19 10:12:15;;;;;;;22.20;13.63;;;5.90;99.90;;;;;;5052466;28;20645;-83
2020/12/19 10:14:41;;;;;;;15.73;10.63;;;5.90;99.90;;;;;;5051569;28;20405;-83
2020/12/19 10:17:06;;;;;;;14.70;9.80;;;6.00;99.90;;;;;;5045494;28;20549;-86
2020/12/19 10:19:32;;;;;;;14.60;10.97;;;6.00;99.90;;;;;;5032214;28;20178;-82
2020/12/19 10:21:58;;;;;;;15.53;12.30;;;6.10;99.90;;;;;;5049181;28;20174;-88
2020/12/19 10:24:25;;;;;;;15.80;11.43;;;6.20;99.90;;;;;;5050560;28;20188;-83
2020/12/19 10:26:50;;;;;;;13.53;10.70;;;6.30;99.90;;;;;;5051893;28;20423;-83
2020/12/19 10:29:16;;;;;;;14.97;11.93;;;6.40;99.90;;;;;;5055373;28;20916;-84
2020/12/19 10:31:42;;;;;;;14.30;11.13;;;6.40;99.90;;;;;;5035187;28;20221;-84
2020/12/19 10:34:07;;;;;;;19.20;11.93;;;6.40;99.90;;;;;;5036341;28;20174;-84
2020/12/19 10:36:33;;;;;;;15.17;10.23;;;6.50;99.90;;;;;;5051303;28;20188;-85
2020/12/19 10:38:59;;;;;;;21.10;10.73;;;6.50;99.90;;;;;;5038268;28;20233;-85
2020/12/19 10:41:26;;;;;;;14.60;10.40;;;6.60;99.90;;;;;;5056224;28;20190;-84
2020/12/19 10:43:51;;;;;;;13.40;9.90;;;6.60;99.90;;;;;;5055701;28;20423;-84
2020/12/19 10:46:25;;;;;;;16.33;11.40;;;6.70;99.90;;;;;;5053463;28;20491;-84
2020/12/19 10:48:51;;;;;;;12.43;10.00;;;6.90;99.90;;;;;;5036954;28;20693;-84
2020/12/19 10:51:17;;;;;;;11.97;8.60;;;;;;;;;;5055451;28;20554;-85
2020/12/19 10:53:43;;;;;;;9.93;8.17;;;8.00;99.90;;;;;;5070778;28;20234;-88
2020/12/19 10:56:16;;;;;;;12.68;9.20;;;8.90;99.90;;;;;;5057055;28;20453;-84
2020/12/19 10:58:42;;;;;;;9.90;7.33;;;9.90;99.90;;;;;;5075635;28;20169;-82
2020/12/19 11:01:07;;;;;;;9.60;6.70;;;10.60;99.90;;;;;;5075880;28;20426;-79
2020/12/19 11:03:33;;;;;;;10.43;7.40;;;11.20;99.90;;;;;;5075831;28;20234;-79
2020/12/19 11:05:58;;;;;;;9.60;6.10;;;11.70;99.90;;;;;;5075723;28;20257;-81
2020/12/19 11:08:24;;;;;;;10.43;7.40;;;12.30;99.90;;;;;;5075695;28;20309;-80
2020/12/19 11:10:49;;;;;;;11.00;7.37;;;12.90;99.90;;;;;;5056021;28;20223;-80
2020/12/19 11:13:15;;;;;;;10.17;7.43;;;13.20;99.90;;;;;;5055225;28;20219;-79
2020/12/19 11:15:41;;;;;;;8.47;6.30;;;13.50;99.90;;;;;;5055504;28;20172;-80
2020/12/19 11:18:06;;;;;;;9.17;6.50;;;13.70;99.90;;;;;;5055541;28;20185;-81
2020/12/19 11:20:32;;;;;;;10.60;7.53;;;13.90;99.90;;;;;;5055402;28;20176;-84
2020/12/19 11:22:57;;;;;;;8.17;6.47;;;14.20;99.90;;;;;;5054728;28;20212;-82
2020/12/19 11:25:23;;;;;;;8.53;6.37;;;14.10;99.90;;;;;;5053681;28;20661;-80
2020/12/19 11:27:48;;;;;;;8.40;7.30;;;14.00;99.90;;;;;;5052366;28;20196;-80
2020/12/19 11:30:14;;;;;;;10.53;6.83;;;14.10;99.90;;;;;;5055176;28;20296;-82
2020/12/19 11:32:41;;;;;;;9.60;6.37;;;14.10;99.90;;;;;;5055140;28;20696;-81
2020/12/19 11:35:07;;;;;;;8.13;5.90;;;;;;;;;;5055171;28;20167;-80
2020/12/19 11:37:33;;;;;;;9.07;6.20;;;14.70;99.90;;;;;;5054782;28;20417;-80
2020/12/19 11:39:58;;;;;;;8.47;6.37;;;15.00;99.90;;;;;;5053236;28;20495;-81
2020/12/19 11:42:24;;;;;;;8.30;6.47;;;15.30;98.60;;;;;;5054655;28;20582;-81
2020/12/19 11:44:50;;;;;;;7.67;6.00;;;15.60;99.40;;;;;;5055049;28;20543;-80
2020/12/19 11:47:15;;;;;;;9.07;8.17;;;15.70;97.00;;;;;;5054809;28;20635;-80
2020/12/19 11:49:41;;;;;;;8.80;7.83;;;15.50;97.60;;;;;;5048609;28;20324;-80
2020/12/19 11:52:09;;;;;;;7.83;5.90;;;15.40;98.50;;;;;;5040703;28;20177;-80
2020/12/19 11:54:38;;;;;;;8.87;7.23;;;15.10;98.30;;;;;;5040202;28;20170;-80
2020/12/19 11:57:05;;;;;;;8.53;7.17;;;14.50;99.90;;;;;;5043933;28;20956;-80
2020/12/19 11:59:30;;;;;;;8.00;6.97;;;14.50;99.90;;;;;;5049556;28;20427;-80
2020/12/19 12:02:00;;;;;;;10.10;6.53;;;14.40;99.90;;;;;;5054750;28;20431;-80
2020/12/19 12:04:26;;;;;;;10.33;6.50;;;14.50;99.90;;;;;;5036759;28;20174;-81
2020/12/19 12:06:51;;;;;;;8.83;7.93;;;14.50;99.90;;;;;;5054689;28;20423;-81
2020/12/19 12:09:17;;;;;;;10.07;7.23;;;14.80;99.90;;;;;;5054647;28;20416;-81
2020/12/19 12:11:42;;;;;;;8.43;7.50;;;14.80;99.90;;;;;;5036893;28;20205;-80
2020/12/19 12:14:08;;;;;;;7.30;5.83;;;14.70;99.90;;;;;;5054173;28;20176;-80
2020/12/19 12:16:33;;;;;;;8.83;7.57;;;14.60;99.90;;;;;;5054422;28;20198;-81
2020/12/19 12:18:59;;;;;;;7.57;6.27;;;14.80;99.90;;;;;;5054405;28;20243;-81
2020/12/19 12:21:34;;;;;;;7.60;5.80;;;15.10;99.90;;;;;;5054406;28;20170;-82
2020/12/19 12:24:00;;;;;;;9.70;7.40;;;15.30;99.90;;;;;;5054263;28;20187;-81
2020/12/19 12:26:26;;;;;;;7.93;6.27;;;15.50;99.20;;;;;;5054196;28;20422;-81
2020/12/19 12:28:52;;;;;;;8.67;6.00;;;15.80;98.50;;;;;;5053818;28;20187;-81
2020/12/19 12:31:25;;;;;;;9.90;6.67;;;15.90;98.00;;;;;;5054226;28;20568;-81
2020/12/19 12:33:52;;;;;;;7.70;5.93;;;15.90;98.30;;;;;;5054091;28;20532;-82
2020/12/19 12:36:19;;;;;;;7.60;6.57;;;15.70;98.50;;;;;;5054142;28;20538;-81
2020/12/19 12:38:45;;;;;;;9.13;6.23;;;15.60;98.90;;;;;;5053988;28;20225;-81
2020/12/19 12:41:11;;;;;;;7.73;6.80;;;15.30;99.50;;;;;;5054026;28;20883;-81